Time;durP1;ratioP1;P1;durP2;ratioP2;P2;SDS_P1;SDS_P2;PMS_P1;PMS_P2;Temp;Humidity;BMP_temperature;BMP_pressure;BME280_temperature;BME280_humidity;BME280_pressure;Samples;Min_cycle;Max_cycle;Signal;HPM_P1;HPM_P2
2021/06/07 00:02:02;128420.00;0.43;222.60;0.00;0.00;0.62;;;;;21.40;1.40;;;;;;2244282;61;2003;-89
2021/06/07 00:04:30;271058.00;0.90;468.16;0.00;0.00;0.62;;;;;21.40;1.50;;;;;;2241023;61;1011;-90
2021/06/07 00:06:59;82134.00;0.27;142.72;0.00;0.00;0.62;;;;;21.40;1.20;;;;;;2246284;61;954;-89
2021/06/07 00:09:28;73355.00;0.24;127.56;0.00;0.00;0.62;;;;;21.40;1.40;;;;;;2256217;61;1311;-90
2021/06/07 00:11:59;148162.00;0.49;256.64;0.00;0.00;0.62;;;;;21.20;1.60;;;;;;2250925;61;978;-90
2021/06/07 00:14:29;266464.00;0.89;460.26;0.00;0.00;0.62;;;;;21.20;1.40;;;;;;2260103;61;998;-91
2021/06/07 00:16:56;331431.00;1.10;571.95;24649.00;0.08;43.32;;;;;21.10;1.60;;;;;;2253381;61;991;-88
2021/06/07 00:19:26;73028.00;0.24;126.99;0.00;0.00;0.62;;;;;21.00;2.10;;;;;;2260117;61;1322;-89
2021/06/07 00:21:53;158958.00;0.53;275.24;0.00;0.00;0.62;;;;;21.00;2.50;;;;;;2261993;61;1973;-89
2021/06/07 00:24:20;301330.00;1.00;520.21;0.00;0.00;0.62;;;;;21.00;1.60;;;;;;2256031;61;949;-90
2021/06/07 00:26:48;203430.00;0.68;351.83;0.00;0.00;0.62;;;;;21.10;1.30;;;;;;2256043;61;952;-88
2021/06/07 00:29:15;347412.00;1.16;599.41;94366.00;0.31;163.85;;;;;20.90;2.30;;;;;;2256084;61;1378;-89
2021/06/07 00:31:43;205996.00;0.69;356.24;0.00;0.00;0.62;;;;;20.90;2.70;;;;;;2249463;61;959;-89
2021/06/07 00:34:10;86873.00;0.29;150.91;0.00;0.00;0.62;;;;;21.00;2.60;;;;;;2252668;61;1018;-88
2021/06/07 00:36:38;108110.00;0.36;187.57;0.00;0.00;0.62;;;;;20.60;2.20;;;;;;2252714;61;984;-88
2021/06/07 00:39:06;278701.00;0.93;481.30;47316.00;0.16;82.54;;;;;20.50;4.10;;;;;;2255989;61;1298;-89
2021/06/07 00:41:33;197075.00;0.66;340.89;0.00;0.00;0.62;;;;;20.60;4.10;;;;;;2252014;61;1990;-90
2021/06/07 00:44:05;186479.00;0.62;322.65;10646.00;0.04;19.07;;;;;20.80;3.40;;;;;;2253797;61;973;-90
2021/06/07 00:46:31;43432.00;0.14;75.83;0.00;0.00;0.62;;;;;21.00;2.90;;;;;;2257496;61;952;-88
2021/06/07 00:48:58;289851.00;0.97;500.47;0.00;0.00;0.62;;;;;20.90;2.90;;;;;;2262053;61;1319;-89
2021/06/07 00:51:24;184842.00;0.62;319.83;9003.00;0.03;16.22;;;;;20.90;1.80;;;;;;2264039;61;1023;-90
2021/06/07 00:53:51;169010.00;0.56;292.56;0.00;0.00;0.62;;;;;20.90;2.30;;;;;;2264001;61;1043;-88
2021/06/07 00:56:17;212832.00;0.71;368.01;0.00;0.00;0.62;;;;;20.70;2.10;;;;;;2263925;61;1051;-88
2021/06/07 00:58:47;316520.00;1.06;546.32;26951.00;0.09;47.31;;;;;20.50;3.40;;;;;;2257422;61;1400;-88
2021/06/07 01:01:17;3198.00;0.01;6.16;0.00;0.00;0.62;;;;;20.60;3.50;;;;;;2255960;61;1995;-89
2021/06/07 01:03:45;202655.00;0.68;350.49;0.00;0.00;0.62;;;;;20.80;1.40;;;;;;2255858;61;1074;-89
2021/06/07 01:06:13;172332.00;0.57;298.28;0.00;0.00;0.62;;;;;21.00;1.90;;;;;;2256061;61;1016;-90
2021/06/07 01:08:39;467368.00;1.56;805.66;30779.00;0.10;53.93;;;;;21.10;1.20;;;;;;2255975;61;1419;-88
2021/06/07 01:11:07;236808.00;0.79;409.26;63826.00;0.21;111.09;;;;;21.10;1.30;;;;;;2256073;61;1065;-90
2021/06/07 01:13:36;407377.00;1.36;702.49;16156.00;0.05;28.61;;;;;21.00;2.70;;;;;;2253429;61;957;-88
2021/06/07 01:16:04;287358.00;0.96;496.19;0.00;0.00;0.62;;;;;21.00;2.80;;;;;;2259958;61;1065;-90
2021/06/07 01:18:32;471548.00;1.57;812.85;66236.00;0.22;115.26;;;;;21.00;2.40;;;;;;2261319;61;1389;-90
2021/06/07 01:21:01;176095.00;0.59;304.76;0.00;0.00;0.62;;;;;20.80;2.20;;;;;;2255940;61;963;-90
2021/06/07 01:23:29;137363.00;0.46;238.02;0.00;0.00;0.62;;;;;20.70;2.70;;;;;;2255899;61;2017;-89
2021/06/07 01:25:57;436632.00;1.46;752.79;0.00;0.00;0.62;;;;;20.70;1.90;;;;;;2251732;61;933;-89
2021/06/07 01:28:25;90415.00;0.30;157.02;0.00;0.00;0.62;;;;;20.90;1.60;;;;;;2251985;61;1057;-89
2021/06/07 01:30:54;495645.00;1.65;854.33;28747.00;0.10;50.41;;;;;21.00;2.70;;;;;;2252635;61;1020;-89
2021/06/07 01:33:23;619109.00;2.06;1067.23;83199.00;0.28;144.56;;;;;20.90;2.30;;;;;;2255860;61;989;-91
2021/06/07 01:35:51;222409.00;0.74;384.49;0.00;0.00;0.62;;;;;20.80;2.50;;;;;;2255991;61;931;-90
2021/06/07 01:38:18;1131989.00;3.77;1967.73;98386.00;0.33;170.79;;;;;20.70;2.90;;;;;;2247047;61;996;-88
2021/06/07 01:40:48;265721.00;0.89;458.99;0.00;0.00;0.62;;;;;20.50;3.40;;;;;;2243897;61;1425;-89
2021/06/07 01:43:15;144284.00;0.48;249.96;0.00;0.00;0.62;;;;;20.20;4.00;;;;;;2246261;61;1932;-88
2021/06/07 01:45:45;229249.00;0.76;396.26;0.00;0.00;0.62;;;;;20.40;3.90;;;;;;2251910;61;983;-87
2021/06/07 01:48:13;401986.00;1.34;693.22;0.00;0.00;0.62;;;;;20.00;5.80;;;;;;2251898;61;990;-89
2021/06/07 01:50:41;182259.00;0.61;315.38;0.00;0.00;0.62;;;;;20.30;3.20;;;;;;2251840;61;1339;-89
2021/06/07 01:53:15;476913.00;1.59;822.09;44041.00;0.15;76.88;;;;;20.30;4.70;;;;;;2251875;61;966;-90
2021/06/07 01:55:46;169307.00;0.56;293.07;0.00;0.00;0.62;;;;;20.10;3.90;;;;;;2249683;61;958;-88
2021/06/07 01:58:15;1068503.00;3.56;1854.19;230690.00;0.77;398.74;;;;;20.30;4.10;;;;;;2251828;61;949;-88
2021/06/07 02:00:45;987566.00;3.29;1710.46;157684.00;0.53;273.05;;;;;20.30;3.00;;;;;;2251832;61;1418;-89
2021/06/07 02:03:13;293637.00;0.98;506.98;23132.00;0.08;40.69;;;;;20.20;3.40;;;;;;2255122;61;1925;-87
2021/06/07 02:05:43;109265.00;0.36;189.56;0.00;0.00;0.62;;;;;20.50;3.60;;;;;;2257196;61;1014;-88
2021/06/07 02:08:12;1394218.00;4.65;2445.60;210782.00;0.70;364.48;;;;;20.40;3.80;;;;;;2260437;61;931;-89
2021/06/07 02:10:42;1425183.00;4.75;2503.11;271157.00;0.90;468.33;;;;;20.50;4.40;;;;;;2259639;61;1325;-89
2021/06/07 02:13:11;842432.00;2.81;1455.23;0.00;0.00;0.62;;;;;20.50;2.70;;;;;;2259399;61;1046;-89
2021/06/07 02:15:39;174171.00;0.58;301.45;0.00;0.00;0.62;;;;;20.50;3.20;;;;;;2253630;61;982;-89
2021/06/07 02:18:09;526297.00;1.75;907.11;50640.00;0.17;88.29;;;;;20.70;2.00;;;;;;2259767;61;951;-89
2021/06/07 02:20:37;1006063.00;3.35;1743.21;202438.00;0.67;350.12;;;;;20.80;2.60;;;;;;2259695;61;1366;-87
2021/06/07 02:23:04;858203.00;2.86;1482.83;132451.00;0.44;229.56;;;;;20.20;3.00;;;;;;2259624;61;2004;-87
2021/06/07 02:25:32;664723.00;2.22;1146.12;109942.00;0.37;190.73;;;;;20.30;2.90;;;;;;2259676;61;1031;-88
2021/06/07 02:27:58;312168.00;1.04;538.84;48571.00;0.16;84.71;;;;;20.40;4.50;;;;;;2260635;61;955;-89
2021/06/07 02:33:00;1102013.00;3.67;1914.02;0.00;0.00;0.62;;;;;20.30;4.00;;;;;;2278626;61;1423;-90
2021/06/07 02:35:30;323262.00;1.08;557.90;0.00;0.00;0.62;;;;;20.40;3.50;;;;;;2276875;61;957;-91
2021/06/07 02:37:57;263948.00;0.88;455.94;0.00;0.00;0.62;;;;;20.40;3.50;;;;;;2268248;61;966;-90
2021/06/07 02:40:26;382639.00;1.28;659.96;0.00;0.00;0.62;;;;;20.60;3.60;;;;;;2256174;61;1413;-91
2021/06/07 02:42:53;405675.00;1.35;699.56;57934.00;0.19;100.91;;;;;20.60;3.70;;;;;;2248200;61;1923;-90
2021/06/07 02:45:21;559409.00;1.86;964.18;0.00;0.00;0.62;;;;;20.70;3.40;;;;;;2244237;61;992;-90
2021/06/07 02:47:50;278453.00;0.93;480.88;0.00;0.00;0.62;;;;;20.70;3.60;;;;;;2244359;61;1103;-90
2021/06/07 02:50:23;354081.00;1.18;610.88;0.00;0.00;0.62;;;;;20.60;4.20;;;;;;2240226;61;1439;-89
2021/06/07 02:52:50;337416.00;1.12;582.23;0.00;0.00;0.62;;;;;20.80;3.00;;;;;;2240283;61;1043;-90
2021/06/07 02:55:19;526148.00;1.75;906.86;0.00;0.00;0.62;;;;;20.60;3.20;;;;;;2230086;62;1019;-90
2021/06/07 02:57:46;229154.00;0.76;396.09;0.00;0.00;0.62;;;;;20.40;3.90;;;;;;2241929;61;1083;-90
2021/06/07 03:00:16;432730.00;1.44;746.08;0.00;0.00;0.62;;;;;20.40;4.20;;;;;;2248083;61;1807;-90
2021/06/07 03:02:42;454875.00;1.52;784.17;78769.00;0.26;136.91;;;;;20.50;3.80;;;;;;2248087;61;1932;-89
2021/06/07 03:05:10;261656.00;0.87;452.00;32891.00;0.11;57.59;;;;;20.40;3.90;;;;;;2248098;61;1066;-90
2021/06/07 03:07:37;516374.00;1.72;890.02;0.00;0.00;0.62;;;;;20.30;4.40;;;;;;2240933;61;1089;-89
2021/06/07 03:10:06;209193.00;0.70;361.75;0.00;0.00;0.62;;;;;19.90;6.10;;;;;;2244090;61;1774;-90
2021/06/07 03:12:32;309696.00;1.03;534.59;0.00;0.00;0.62;;;;;20.00;6.20;;;;;;2245610;61;1053;-91
2021/06/07 03:14:59;541671.00;1.81;933.60;101597.00;0.34;176.33;;;;;20.10;5.70;;;;;;2245288;61;1045;-89
2021/06/07 03:17:25;248246.00;0.83;428.93;0.00;0.00;0.62;;;;;20.00;6.20;;;;;;2252007;61;1034;-89
2021/06/07 03:19:52;425915.00;1.42;734.36;0.00;0.00;0.62;;;;;20.10;5.00;;;;;;2244066;61;1314;-89
2021/06/07 03:22:21;368227.00;1.23;635.19;75363.00;0.25;131.03;;;;;19.90;5.30;;;;;;2244033;61;2011;-91
2021/06/07 03:24:49;365333.00;1.22;630.22;0.00;0.00;0.62;;;;;19.90;5.50;;;;;;2244626;61;1099;-90
2021/06/07 03:27:16;450387.00;1.50;776.45;0.00;0.00;0.62;;;;;20.00;6.20;;;;;;2244084;61;1047;-90
2021/06/07 03:29:42;774850.00;2.58;1337.30;48875.00;0.16;85.24;;;;;20.00;5.70;;;;;;2236130;62;1320;-91
2021/06/07 03:32:09;367799.00;1.23;634.45;0.00;0.00;0.62;;;;;20.40;4.90;;;;;;2237077;61;1024;-90
2021/06/07 03:34:36;350196.00;1.17;604.20;0.00;0.00;0.62;;;;;20.60;3.80;;;;;;2240493;61;976;-90
2021/06/07 03:37:04;272917.00;0.91;471.36;0.00;0.00;0.62;;;;;20.60;3.60;;;;;;2238942;61;1062;-91
2021/06/07 03:39:31;546939.00;1.82;942.68;60919.00;0.20;106.07;;;;;20.70;3.90;;;;;;2232282;62;1655;-90
2021/06/07 03:41:59;251575.00;0.84;434.66;299.00;0.00;1.14;;;;;20.70;3.30;;;;;;2231302;62;1989;-90
2021/06/07 03:44:25;310130.00;1.03;535.33;0.00;0.00;0.62;;;;;20.70;2.50;;;;;;2225541;62;1048;-90
2021/06/07 03:46:52;251266.00;0.84;434.13;0.00;0.00;0.62;;;;;20.50;3.30;;;;;;2238066;61;1623;-89
2021/06/07 03:49:19;253476.00;0.84;437.93;0.00;0.00;0.62;;;;;20.40;3.40;;;;;;2252534;61;1308;-90
2021/06/07 03:51:45;716734.00;2.39;1236.27;57569.00;0.19;100.27;;;;;20.30;4.50;;;;;;2248980;61;1064;-90
2021/06/07 03:54:12;468152.00;1.56;807.01;0.00;0.00;0.62;;;;;20.30;4.90;;;;;;2249414;61;1064;-92
2021/06/07 03:56:39;243779.00;0.81;421.25;38828.00;0.13;67.86;;;;;20.40;3.60;;;;;;2259847;61;1040;-91
2021/06/07 03:59:07;572267.00;1.91;986.36;84166.00;0.28;146.23;;;;;20.40;4.40;;;;;;2251916;61;979;-91
2021/06/07 04:01:33;445590.00;1.49;768.20;0.00;0.00;0.62;;;;;20.50;3.40;;;;;;2251740;61;1916;-92
2021/06/07 04:04:00;362659.00;1.21;625.62;0.00;0.00;0.62;;;;;20.20;5.00;;;;;;2243997;61;987;-91
2021/06/07 04:06:26;525084.00;1.75;905.02;16278.00;0.05;28.82;;;;;20.40;5.00;;;;;;2244009;61;1810;-91
2021/06/07 04:08:56;311870.00;1.04;538.32;0.00;0.00;0.62;;;;;20.70;4.00;;;;;;2244082;61;1067;-91
2021/06/07 04:11:23;153710.00;0.51;266.20;0.00;0.00;0.62;;;;;20.70;3.00;;;;;;2243838;61;1694;-91
2021/06/07 04:13:50;537002.00;1.79;925.56;0.00;0.00;0.62;;;;;20.70;2.70;;;;;;2245666;61;1752;-92
2021/06/07 04:16:18;178135.00;0.59;308.28;0.00;0.00;0.62;;;;;20.70;1.40;;;;;;2245565;61;1021;-91
2021/06/07 04:18:45;371844.00;1.24;641.41;0.00;0.00;0.62;;;;;20.80;1.60;;;;;;2251953;61;967;-91
2021/06/07 04:21:12;341874.00;1.14;589.89;0.00;0.00;0.62;;;;;20.90;1.60;;;;;;2253557;61;1424;-91
2021/06/07 04:23:39;388779.00;1.30;670.52;0.00;0.00;0.62;;;;;20.90;2.70;;;;;;2255878;61;2020;-90
2021/06/07 04:26:06;659012.00;2.20;1136.23;109296.00;0.36;189.62;;;;;20.80;2.70;;;;;;2247901;61;1143;-92
2021/06/07 04:28:35;387945.00;1.29;669.08;0.00;0.00;0.62;;;;;20.60;1.90;;;;;;2247854;61;1021;-89
2021/06/07 04:31:02;136119.00;0.45;235.88;0.00;0.00;0.62;;;;;20.70;2.90;;;;;;2243796;61;1396;-90
2021/06/07 04:33:30;209658.00;0.70;362.55;35468.00;0.12;62.05;;;;;20.30;4.40;;;;;;2235985;62;1026;-90
2021/06/07 04:35:56;369320.00;1.23;637.07;100451.00;0.33;174.35;;;;;20.10;4.20;;;;;;2236638;62;979;-92
2021/06/07 04:38:23;257639.00;0.86;445.09;22926.00;0.08;40.34;;;;;20.30;4.10;;;;;;2236377;62;1069;-92
2021/06/07 04:40:50;422352.00;1.41;728.23;43419.00;0.14;75.80;;;;;20.50;3.10;;;;;;2236986;61;1438;-88
2021/06/07 04:43:18;366464.00;1.22;632.16;41812.00;0.14;73.02;;;;;20.20;4.60;;;;;;2244848;61;1934;-89
2021/06/07 04:45:47;378873.00;1.26;653.49;71833.00;0.24;124.93;;;;;20.20;5.40;;;;;;2247687;61;1018;-90
2021/06/07 04:48:15;671730.00;2.24;1158.25;25640.00;0.09;45.04;;;;;20.50;4.70;;;;;;2247792;61;1030;-90
2021/06/07 04:50:45;530138.00;1.77;913.73;70915.00;0.24;123.34;;;;;20.50;4.10;;;;;;2241040;61;1442;-91
2021/06/07 04:53:12;120362256.00;401.21;70636440.00;6635.00;0.02;12.12;;;;;20.30;4.40;;;;;;2247521;61;1065;-88
2021/06/07 04:55:41;506960.00;1.69;873.81;0.00;0.00;0.62;;;;;20.30;4.20;;;;;;2248541;61;1604;-90
2021/06/07 04:58:11;614062.00;2.05;1058.51;0.00;0.00;0.62;;;;;20.20;4.80;;;;;;2251569;61;977;-88
2021/06/07 05:00:41;443484.00;1.48;764.57;0.00;0.00;0.62;;;;;20.40;4.90;;;;;;2243773;61;1340;-90
2021/06/07 05:03:09;280755.00;0.94;484.84;0.00;0.00;0.62;;;;;20.40;4.00;;;;;;2245466;61;2005;-90
2021/06/07 05:05:37;263719.00;0.88;455.54;0.00;0.00;0.62;;;;;20.30;4.70;;;;;;2246788;61;1142;-88
2021/06/07 05:08:07;348631.00;1.16;601.51;0.00;0.00;0.62;;;;;20.10;5.30;;;;;;2237496;61;1082;-89
2021/06/07 05:10:34;417847.00;1.39;720.49;73781.00;0.25;128.29;;;;;20.10;5.60;;;;;;2236755;62;1322;-90
2021/06/07 05:13:09;638674.00;2.13;1101.05;44277.00;0.15;77.29;;;;;20.00;6.00;;;;;;2235958;62;1043;-90
2021/06/07 05:15:36;548396.00;1.83;945.19;162700.00;0.54;281.69;;;;;20.30;4.60;;;;;;2231826;62;1061;-88
2021/06/07 05:28:24;1884025.00;6.28;3388.84;11174.00;0.04;19.98;;;;;20.80;3.10;;;;;;2277847;61;1368;-90
2021/06/07 05:30:52;741062.00;2.47;1278.52;30651.00;0.10;53.71;;;;;20.80;2.50;;;;;;2263854;61;1266;-91
2021/06/07 05:33:19;118349752.00;394.50;67149072.00;58487.00;0.19;101.86;;;;;20.80;3.00;;;;;;2263826;61;1037;-89
2021/06/07 05:35:49;625034.00;2.08;1077.47;82353.00;0.27;143.10;;;;;20.90;2.90;;;;;;2255760;61;981;-90
2021/06/07 06:09:22;1781885.00;5.94;3185.66;73541.00;0.25;127.88;;;;;21.40;1.00;;;;;;2278029;61;1244;-91
2021/06/07 06:11:49;332510.00;1.11;573.80;93776.00;0.31;162.83;;;;;21.20;1.20;;;;;;2272214;61;992;-91
2021/06/07 06:14:16;281448.00;0.94;486.03;106713.00;0.36;185.16;;;;;21.30;1.00;;;;;;2272252;61;913;-89
2021/06/07 06:16:44;681259.00;2.27;1174.75;36402.00;0.12;63.66;;;;;21.40;1.00;;;;;;2263506;61;1020;-91
2021/06/07 06:21:45;1301775.00;4.34;2275.35;0.00;0.00;0.62;;;;;21.00;1.40;;;;;;2277772;61;1958;-92
2021/06/07 06:24:13;579865.00;1.93;999.47;98996.00;0.33;171.84;;;;;21.00;1.90;;;;;;2263711;61;954;-90
2021/06/07 06:26:41;182246.00;0.61;315.36;0.00;0.00;0.62;;;;;21.10;2.20;;;;;;2263607;61;1037;-92
2021/06/07 06:29:10;234961.00;0.78;406.08;0.00;0.00;0.62;;;;;21.00;3.60;;;;;;2259630;61;1084;-90
2021/06/07 06:36:39;1821198.00;6.07;3263.42;57264.00;0.19;99.75;;;;;20.80;2.20;;;;;;2277977;61;1340;-90
2021/06/07 06:39:07;424322.00;1.41;731.62;68318.00;0.23;118.85;;;;;20.60;4.00;;;;;;2267663;61;948;-90
2021/06/07 06:46:39;1560707.00;5.20;2757.88;45140.00;0.15;78.78;;;;;20.80;3.70;;;;;;2277574;61;1278;-91
2021/06/07 06:49:14;412934.00;1.38;712.04;162417.00;0.54;281.20;;;;;21.10;2.40;;;;;;2263546;61;961;-91
2021/06/07 06:51:41;590290.00;1.97;1017.46;199639.00;0.67;345.30;;;;;21.30;1.60;;;;;;2251565;61;934;-90
2021/06/07 08:32:45;254160.00;0.85;439.11;0.00;0.00;0.62;;;;;21.90;1.50;;;;;;2278671;61;1820;-87
2021/06/07 08:35:12;35064.00;0.12;61.35;0.00;0.00;0.62;;;;;22.00;1.60;;;;;;2276701;61;1015;-87
2021/06/07 08:37:39;765426.00;2.55;1320.89;0.00;0.00;0.62;;;;;22.00;1.10;;;;;;2276687;61;1054;-86
2021/06/07 08:40:08;845491.00;2.82;1460.58;22794.00;0.08;40.11;;;;;21.80;2.00;;;;;;2276636;61;1300;-87
2021/06/07 08:42:37;1372259.00;4.57;2404.97;358343.00;1.19;618.20;;;;;21.90;1.70;;;;;;2276633;61;1907;-87
2021/06/07 08:45:05;73160.00;0.24;127.22;0.00;0.00;0.62;;;;;21.90;1.00;;;;;;2273128;61;1507;-86
2021/06/07 08:47:33;1212497.00;4.04;2112.83;285981.00;0.95;493.82;;;;;22.00;1.10;;;;;;2276656;61;1145;-87
2021/06/07 08:50:01;140674.00;0.47;243.73;0.00;0.00;0.62;;;;;22.20;1.10;;;;;;2276630;61;1305;-86
2021/06/07 08:52:28;169502.00;0.57;293.41;0.00;0.00;0.62;;;;;22.00;1.70;;;;;;2276649;61;1137;-88
2021/06/07 08:54:54;240614.00;0.80;415.81;0.00;0.00;0.62;;;;;22.00;2.00;;;;;;2276576;61;1067;-88
2021/06/07 08:57:21;299025.00;1.00;516.24;29776.00;0.10;52.20;;;;;22.00;1.90;;;;;;2276628;61;1122;-88
2021/06/07 08:59:47;137781.00;0.46;238.75;0.00;0.00;0.62;;;;;22.20;2.00;;;;;;2276572;61;1407;-86
2021/06/07 09:02:13;544112.00;1.81;937.81;60063.00;0.20;104.59;;;;;22.40;1.10;;;;;;2276583;61;1998;-87
2021/06/07 09:04:48;401661.00;1.34;692.66;67964.00;0.23;118.24;;;;;22.60;1.00;;;;;;2276606;61;1029;-87
2021/06/07 09:07:17;89565.00;0.30;155.56;0.00;0.00;0.62;;;;;22.20;1.00;;;;;;2276559;61;1040;-87
2021/06/07 09:10:07;49412.00;0.16;86.17;0.00;0.00;0.62;;;;;22.00;2.10;;;;;;2276576;61;1403;-87
2021/06/07 09:12:34;225184.00;0.75;389.26;73981.00;0.25;128.64;;;;;22.00;1.80;;;;;;2276565;61;1030;-87
2021/06/07 09:15:00;216548.00;0.72;374.40;0.00;0.00;0.62;;;;;22.20;2.60;;;;;;2276558;61;1057;-87
2021/06/07 09:17:27;912559.00;3.04;1578.19;136699.00;0.46;236.88;;;;;22.60;1.00;;;;;;2276589;61;1103;-87
2021/06/07 09:20:12;915637.00;3.05;1583.60;153690.00;0.51;266.17;;;;;22.60;1.00;;;;;;2276513;61;1402;-87
2021/06/07 09:22:39;825654.00;2.75;1425.90;98502.00;0.33;170.99;;;;;22.50;1.00;;;;;;2276516;61;1911;-88
2021/06/07 09:25:09;221779.00;0.74;383.40;0.00;0.00;0.62;;;;;22.50;1.00;;;;;;2276519;61;1075;-87
2021/06/07 09:27:36;389301.00;1.30;671.41;16377.00;0.05;29.00;;;;;22.60;1.00;;;;;;2276452;61;1104;-86
2021/06/07 09:30:24;447332.00;1.49;771.19;118742.00;0.40;205.91;;;;;22.40;1.00;;;;;;2276513;61;1511;-88
2021/06/07 09:32:50;464731.00;1.55;801.12;52308.00;0.17;91.18;;;;;22.20;1.10;;;;;;2276581;61;1118;-87
2021/06/07 09:35:18;294078.00;0.98;507.74;63671.00;0.21;110.82;;;;;22.30;1.00;;;;;;2276502;61;1543;-88
2021/06/07 09:38:05;167969.00;0.56;290.77;64086.00;0.21;111.54;;;;;22.20;1.30;;;;;;2276510;61;1305;-87
2021/06/07 09:40:32;179980.00;0.60;311.46;71592.00;0.24;124.51;;;;;22.50;1.00;;;;;;2276455;61;1498;-86
2021/06/07 09:43:02;510704.00;1.70;880.25;63848.00;0.21;111.13;;;;;22.60;1.00;;;;;;2276475;61;2000;-87
2021/06/07 09:45:43;389390.00;1.30;671.57;0.00;0.00;0.62;;;;;22.00;1.00;;;;;;2276404;61;1032;-87
2021/06/07 09:48:12;168036.00;0.56;290.88;65431.00;0.22;113.86;;;;;21.90;1.00;;;;;;2267806;61;945;-87
2021/06/07 09:50:53;530097.00;1.77;913.66;67724.00;0.23;117.83;;;;;21.70;1.60;;;;;;2267837;61;1377;-87
2021/06/07 09:53:40;227631.00;0.76;393.47;61725.00;0.21;107.46;;;;;21.80;1.50;;;;;;2267928;61;1134;-87
2021/06/07 09:56:06;763009.00;2.54;1316.69;173012.00;0.58;299.45;;;;;22.00;2.10;;;;;;2267850;61;1230;-86
2021/06/07 09:58:35;545394.00;1.82;940.02;0.00;0.00;0.62;;;;;22.20;2.00;;;;;;2267919;61;1028;-87
2021/06/07 10:01:08;792765.00;2.64;1368.51;0.00;0.00;0.62;;;;;22.40;1.00;;;;;;2267848;61;1406;-87
2021/06/07 10:03:39;254095.00;0.85;438.99;78295.00;0.26;136.09;;;;;22.50;1.00;;;;;;2267852;61;1998;-88
2021/06/07 10:06:22;1065768.00;3.55;1849.31;282976.00;0.94;488.65;;;;;22.50;1.00;;;;;;2271834;61;1437;-87
2021/06/07 10:08:52;1392552.00;4.64;2442.52;479026.00;1.60;825.72;;;;;22.40;1.10;;;;;;2276447;61;1060;-88
2021/06/07 10:11:21;1498147.00;4.99;2639.63;391940.00;1.31;675.95;;;;;22.30;1.50;;;;;;2276286;61;1375;-86
2021/06/07 10:13:48;1625926.00;5.42;2882.39;444094.00;1.48;765.62;;;;;22.00;2.70;;;;;;2276341;61;1138;-88
2021/06/07 10:16:15;1179714.00;3.93;2053.59;272433.00;0.91;470.53;;;;;22.20;1.90;;;;;;2276196;61;1044;-87
2021/06/07 10:18:43;701248.00;2.34;1209.40;137640.00;0.46;238.50;;;;;22.40;1.00;;;;;;2276324;61;1130;-87
2021/06/07 10:21:11;547446.00;1.82;943.56;48486.00;0.16;84.57;;;;;22.30;1.20;;;;;;2276330;61;1405;-86
2021/06/07 10:23:39;480167.00;1.60;827.68;65678.00;0.22;114.29;;;;;22.70;1.30;;;;;;2276305;61;1988;-88
2021/06/07 10:26:08;285454.00;0.95;492.91;64939.00;0.22;113.01;;;;;22.90;1.20;;;;;;2276334;61;1268;-87
2021/06/07 10:28:36;137173.00;0.46;237.70;0.00;0.00;0.62;;;;;23.10;1.00;;;;;;2276290;61;1015;-87
2021/06/07 10:31:12;200174.00;0.67;346.22;0.00;0.00;0.62;;;;;22.70;1.00;;;;;;2276235;61;1278;-87
2021/06/07 10:33:40;664791.00;2.22;1146.23;122829.00;0.41;212.96;;;;;23.10;1.00;;;;;;2276295;61;1079;-87
2021/06/07 10:36:30;496199.00;1.65;855.28;36767.00;0.12;64.29;;;;;22.70;1.40;;;;;;2276337;61;1106;-87
2021/06/07 10:39:25;312279.00;1.04;539.03;180187.00;0.60;311.81;;;;;22.80;1.40;;;;;;2276316;61;1062;-87
2021/06/07 10:42:20;1115375.00;3.72;1937.94;466263.00;1.55;803.76;;;;;23.10;1.00;;;;;;2276309;61;1315;-86
2021/06/07 10:44:51;1499311.00;5.00;2641.82;320481.00;1.07;553.12;;;;;23.40;1.00;;;;;;2276331;61;1018;-87
2021/06/07 10:47:20;1009963.00;3.37;1750.13;316855.00;1.06;546.89;;;;;23.40;1.00;;;;;;2276303;61;916;-86
2021/06/07 10:49:49;1117684.00;3.73;1942.08;251434.00;0.84;434.42;;;;;23.30;1.00;;;;;;2276264;61;1401;-87
2021/06/07 10:52:18;1436198.00;4.79;2523.63;499219.00;1.66;860.48;;;;;23.30;1.00;;;;;;2276607;61;1106;-87
2021/06/07 10:54:46;618562.00;2.06;1066.28;142914.00;0.48;247.59;;;;;23.00;1.00;;;;;;2277017;61;997;-87
2021/06/07 10:57:41;1091696.00;3.64;1895.58;298535.00;1.00;515.40;;;;;23.20;1.00;;;;;;2277003;61;1043;-88
2021/06/07 11:00:20;400438.00;1.33;690.56;53027.00;0.18;92.42;;;;;23.10;1.00;;;;;;2276668;61;1402;-87
2021/06/07 11:02:48;201693.00;0.67;348.84;69232.00;0.23;120.43;;;;;23.10;1.00;;;;;;2276871;61;1978;-87
2021/06/07 11:05:18;230538.00;0.77;398.47;67880.00;0.23;118.10;;;;;23.50;1.00;;;;;;2276913;61;1109;-87
2021/06/07 11:07:59;578539.00;1.93;997.18;43231.00;0.14;75.48;;;;;23.30;1.00;;;;;;2276913;61;1029;-86
2021/06/07 11:10:28;653340.00;2.18;1126.42;209464.00;0.70;362.21;;;;;23.30;1.00;;;;;;2276866;61;1367;-87
2021/06/07 11:12:58;750575.00;2.50;1295.06;142855.00;0.48;247.49;;;;;23.30;1.00;;;;;;2276847;61;1107;-87
2021/06/07 11:15:27;62494.00;0.21;108.79;0.00;0.00;0.62;;;;;23.10;1.00;;;;;;2276907;61;1146;-87
2021/06/07 11:18:35;365211.00;1.22;630.01;65855.00;0.22;114.60;;;;;23.10;1.00;;;;;;2276891;61;903;-87
2021/06/07 11:21:25;1142254.00;3.81;1986.16;239815.00;0.80;414.43;;;;;23.40;1.00;;;;;;2275858;61;1299;-87
2021/06/07 11:23:52;58541.00;0.20;101.95;0.00;0.00;0.62;;;;;23.40;1.00;;;;;;2276867;61;1911;-87
2021/06/07 11:26:21;476970.00;1.59;822.18;140780.00;0.47;243.92;;;;;23.80;1.00;;;;;;2276824;61;1014;-87
2021/06/07 11:28:50;201382.00;0.67;348.30;69322.00;0.23;120.59;;;;;24.00;1.00;;;;;;2276835;61;1119;-87
2021/06/07 11:31:52;93911.00;0.31;163.06;0.00;0.00;0.62;;;;;24.10;1.00;;;;;;2276736;61;1390;-87
2021/06/07 11:34:43;115329.00;0.38;200.02;14530.00;0.05;25.80;;;;;23.80;1.00;;;;;;2276850;61;1085;-87
2021/06/07 11:37:10;369728.00;1.23;637.77;50526.00;0.17;88.10;;;;;23.70;1.00;;;;;;2276805;61;1915;-87
2021/06/07 11:39:54;309475.00;1.03;534.21;54375.00;0.18;94.75;;;;;23.70;1.00;;;;;;2276824;61;1093;-86
2021/06/07 11:42:24;55357.00;0.18;96.45;0.00;0.00;0.62;;;;;23.60;1.00;;;;;;2276805;61;1916;-86
2021/06/07 11:45:07;5976.00;0.02;10.98;0.00;0.00;0.62;;;;;23.70;1.00;;;;;;2276808;61;1017;-86
2021/06/07 11:47:52;108196.00;0.36;187.72;0.00;0.00;0.62;;;;;23.80;1.00;;;;;;2276786;61;1031;-87
2021/06/07 11:50:29;267461.00;0.89;461.98;0.00;0.00;0.62;;;;;23.30;1.00;;;;;;2276759;61;1396;-85
2021/06/07 11:52:56;0.00;0.00;0.62;0.00;0.00;0.62;;;;;23.20;1.00;;;;;;2276818;61;1157;-86
2021/06/07 11:55:33;13835.00;0.05;24.59;0.00;0.00;0.62;;;;;23.10;1.00;;;;;;2276778;61;1047;-87
2021/06/07 11:58:12;82567.00;0.28;143.47;0.00;0.00;0.62;;;;;23.30;1.00;;;;;;2276797;61;1031;-86
2021/06/07 12:00:42;88303.00;0.29;153.38;0.00;0.00;0.62;;;;;22.90;1.00;;;;;;2276832;61;1356;-87
2021/06/07 12:03:10;257085.00;0.86;444.14;51444.00;0.17;89.68;;;;;23.20;1.00;;;;;;2276811;61;2005;-87
2021/06/07 12:05:37;55440.00;0.18;96.59;0.00;0.00;0.62;;;;;23.40;1.00;;;;;;2276728;61;1551;-86
2021/06/07 12:08:06;226966.00;0.76;392.33;0.00;0.00;0.62;;;;;23.50;1.00;;;;;;2276752;61;1552;-86
2021/06/07 12:10:33;71100.00;0.24;123.66;0.00;0.00;0.62;;;;;23.60;1.00;;;;;;2276764;61;1357;-87
2021/06/07 12:13:25;0.00;0.00;0.62;0.00;0.00;0.62;;;;;23.80;1.00;;;;;;2276752;61;941;-86
2021/06/07 12:15:55;3403.00;0.01;6.52;0.00;0.00;0.62;;;;;23.90;1.00;;;;;;2276757;61;1160;-86
2021/06/07 12:18:40;0.00;0.00;0.62;0.00;0.00;0.62;;;;;23.90;1.00;;;;;;2276758;61;1154;-86
2021/06/07 12:21:10;0.00;0.00;0.62;0.00;0.00;0.62;;;;;24.00;1.00;;;;;;2276692;61;1447;-87
2021/06/07 12:23:39;22176.00;0.07;39.04;0.00;0.00;0.62;;;;;23.70;1.00;;;;;;2276686;61;2005;-86
2021/06/07 12:29:24;4132.00;0.01;7.78;0.00;0.00;0.62;;;;;23.70;1.00;;;;;;2276683;61;644;-87
2021/06/07 12:32:13;22219.00;0.07;39.11;0.00;0.00;0.62;;;;;23.40;1.00;;;;;;2276552;61;1358;-86
2021/06/07 12:34:59;212310.00;0.71;367.11;91360.00;0.30;158.66;;;;;23.30;1.00;;;;;;2276687;61;1047;-86